sensor_id;sensor_type;location;lat;lon;timestamp;P1;durP1;ratioP1;P2;durP2;ratioP2
48789;SDS011;41718;51.980;5.734;2024-01-25T00:02:12;14.85;;;3.78;;
48789;SDS011;41718;51.980;5.734;2024-01-25T00:07:14;14.88;;;3.58;;
48789;SDS011;41718;51.980;5.734;2024-01-25T00:12:16;20.02;;;4.88;;
48789;SDS011;41718;51.980;5.734;2024-01-25T00:17:18;16.20;;;3.60;;
48789;SDS011;41718;51.980;5.734;2024-01-25T00:22:20;11.43;;;4.18;;
48789;SDS011;41718;51.980;5.734;2024-01-25T00:27:23;17.85;;;4.85;;
48789;SDS011;41718;51.980;5.734;2024-01-25T00:32:25;15.95;;;4.25;;
48789;SDS011;41718;51.980;5.734;2024-01-25T00:37:27;20.67;;;4.85;;
48789;SDS011;41718;51.980;5.734;2024-01-25T00:42:29;16.60;;;6.32;;
48789;SDS011;41718;51.980;5.734;2024-01-25T00:47:33;13.80;;;3.40;;
48789;SDS011;41718;51.980;5.734;2024-01-25T00:52:35;14.63;;;3.42;;
48789;SDS011;41718;51.980;5.734;2024-01-25T00:57:38;17.08;;;5.97;;
48789;SDS011;41718;51.980;5.734;2024-01-25T01:02:44;17.38;;;4.10;;
48789;SDS011;41718;51.980;5.734;2024-01-25T01:07:46;15.53;;;5.40;;
48789;SDS011;41718;51.980;5.734;2024-01-25T01:12:49;17.33;;;6.25;;
48789;SDS011;41718;51.980;5.734;2024-01-25T01:17:51;15.73;;;3.38;;
48789;SDS011;41718;51.980;5.734;2024-01-25T01:22:53;12.52;;;3.60;;
48789;SDS011;41718;51.980;5.734;2024-01-25T01:27:55;19.70;;;4.15;;
48789;SDS011;41718;51.980;5.734;2024-01-25T01:32:57;20.20;;;9.82;;
48789;SDS011;41718;51.980;5.734;2024-01-25T01:37:59;19.48;;;3.78;;
48789;SDS011;41718;51.980;5.734;2024-01-25T01:43:01;10.27;;;4.07;;
48789;SDS011;41718;51.980;5.734;2024-01-25T01:48:04;17.42;;;5.63;;
48789;SDS011;41718;51.980;5.734;2024-01-25T01:53:08;15.23;;;5.45;;
48789;SDS011;41718;51.980;5.734;2024-01-25T01:58:10;18.15;;;5.30;;
48789;SDS011;41718;51.980;5.734;2024-01-25T02:03:12;18.55;;;4.70;;
48789;SDS011;41718;51.980;5.734;2024-01-25T02:08:14;12.18;;;4.10;;
48789;SDS011;41718;51.980;5.734;2024-01-25T02:13:16;19.23;;;4.55;;
48789;SDS011;41718;51.980;5.734;2024-01-25T02:18:19;12.30;;;4.68;;
48789;SDS011;41718;51.980;5.734;2024-01-25T02:23:21;20.38;;;3.50;;
48789;SDS011;41718;51.980;5.734;2024-01-25T02:28:23;14.27;;;3.80;;
48789;SDS011;41718;51.980;5.734;2024-01-25T02:33:25;22.02;;;4.72;;
48789;SDS011;41718;51.980;5.734;2024-01-25T02:38:27;18.67;;;4.63;;
48789;SDS011;41718;51.980;5.734;2024-01-25T02:43:29;25.30;;;7.22;;
48789;SDS011;41718;51.980;5.734;2024-01-25T02:48:31;9.07;;;2.90;;
48789;SDS011;41718;51.980;5.734;2024-01-25T02:53:34;11.70;;;3.88;;
48789;SDS011;41718;51.980;5.734;2024-01-25T02:58:36;20.63;;;5.68;;
48789;SDS011;41718;51.980;5.734;2024-01-25T03:03:38;22.50;;;5.05;;
48789;SDS011;41718;51.980;5.734;2024-01-25T03:08:40;26.65;;;5.03;;
48789;SDS011;41718;51.980;5.734;2024-01-25T03:13:42;17.77;;;3.30;;
48789;SDS011;41718;51.980;5.734;2024-01-25T03:18:44;13.70;;;4.25;;
48789;SDS011;41718;51.980;5.734;2024-01-25T03:23:46;18.10;;;4.30;;
48789;SDS011;41718;51.980;5.734;2024-01-25T03:28:48;16.58;;;3.90;;
48789;SDS011;41718;51.980;5.734;2024-01-25T03:33:50;14.25;;;3.88;;
48789;SDS011;41718;51.980;5.734;2024-01-25T03:38:52;21.50;;;3.80;;
48789;SDS011;41718;51.980;5.734;2024-01-25T03:43:54;13.05;;;3.97;;
48789;SDS011;41718;51.980;5.734;2024-01-25T03:48:56;11.30;;;5.05;;
48789;SDS011;41718;51.980;5.734;2024-01-25T03:53:59;17.55;;;4.68;;
48789;SDS011;41718;51.980;5.734;2024-01-25T03:59:00;14.20;;;4.75;;
48789;SDS011;41718;51.980;5.734;2024-01-25T04:04:03;28.52;;;4.78;;
48789;SDS011;41718;51.980;5.734;2024-01-25T04:09:05;20.15;;;4.18;;
48789;SDS011;41718;51.980;5.734;2024-01-25T04:14:07;15.35;;;3.85;;
48789;SDS011;41718;51.980;5.734;2024-01-25T04:19:09;4.25;;;2.15;;
48789;SDS011;41718;51.980;5.734;2024-01-25T04:24:14;11.25;;;3.55;;
48789;SDS011;41718;51.980;5.734;2024-01-25T04:29:16;19.60;;;5.00;;
48789;SDS011;41718;51.980;5.734;2024-01-25T04:34:18;15.60;;;4.03;;
48789;SDS011;41718;51.980;5.734;2024-01-25T04:39:20;12.68;;;4.10;;
48789;SDS011;41718;51.980;5.734;2024-01-25T04:44:23;17.10;;;3.63;;
48789;SDS011;41718;51.980;5.734;2024-01-25T04:49:25;18.98;;;3.80;;
48789;SDS011;41718;51.980;5.734;2024-01-25T04:54:27;17.38;;;5.20;;
48789;SDS011;41718;51.980;5.734;2024-01-25T04:59:29;10.20;;;3.72;;
48789;SDS011;41718;51.980;5.734;2024-01-25T05:04:31;14.75;;;5.72;;
48789;SDS011;41718;51.980;5.734;2024-01-25T05:09:34;16.30;;;3.85;;
48789;SDS011;41718;51.980;5.734;2024-01-25T05:14:36;14.98;;;3.70;;
48789;SDS011;41718;51.980;5.734;2024-01-25T05:19:38;11.75;;;3.47;;
48789;SDS011;41718;51.980;5.734;2024-01-25T05:24:40;19.67;;;3.28;;
48789;SDS011;41718;51.980;5.734;2024-01-25T05:29:42;13.38;;;4.15;;
48789;SDS011;41718;51.980;5.734;2024-01-25T05:34:44;13.10;;;3.85;;
48789;SDS011;41718;51.980;5.734;2024-01-25T05:39:47;21.92;;;5.78;;
48789;SDS011;41718;51.980;5.734;2024-01-25T05:44:49;14.55;;;3.83;;
48789;SDS011;41718;51.980;5.734;2024-01-25T05:49:52;18.13;;;4.57;;
48789;SDS011;41718;51.980;5.734;2024-01-25T05:54:54;17.58;;;4.90;;
48789;SDS011;41718;51.980;5.734;2024-01-25T05:59:57;18.67;;;3.83;;
48789;SDS011;41718;51.980;5.734;2024-01-25T06:04:59;17.92;;;4.30;;
48789;SDS011;41718;51.980;5.734;2024-01-25T06:10:01;13.48;;;4.13;;
48789;SDS011;41718;51.980;5.734;2024-01-25T06:15:05;17.00;;;5.25;;
48789;SDS011;41718;51.980;5.734;2024-01-25T06:20:08;20.65;;;3.30;;
48789;SDS011;41718;51.980;5.734;2024-01-25T06:25:12;23.10;;;5.63;;
48789;SDS011;41718;51.980;5.734;2024-01-25T06:30:17;14.43;;;3.92;;
48789;SDS011;41718;51.980;5.734;2024-01-25T06:35:24;16.83;;;4.07;;
48789;SDS011;41718;51.980;5.734;2024-01-25T06:40:34;12.23;;;5.00;;
48789;SDS011;41718;51.980;5.734;2024-01-25T06:46:01;14.25;;;6.00;;
48789;SDS011;41718;51.980;5.734;2024-01-25T06:51:08;20.13;;;4.95;;
48789;SDS011;41718;51.980;5.734;2024-01-25T06:56:15;10.77;;;4.00;;
48789;SDS011;41718;51.980;5.734;2024-01-25T07:01:25;20.52;;;5.60;;
48789;SDS011;41718;51.980;5.734;2024-01-25T07:06:33;20.88;;;4.85;;
48789;SDS011;41718;51.980;5.734;2024-01-25T07:11:37;16.00;;;4.70;;
48789;SDS011;41718;51.980;5.734;2024-01-25T07:16:41;14.43;;;3.92;;
48789;SDS011;41718;51.980;5.734;2024-01-25T07:21:57;13.30;;;3.75;;
48789;SDS011;41718;51.980;5.734;2024-01-25T07:27:05;9.77;;;3.47;;
48789;SDS011;41718;51.980;5.734;2024-01-25T07:32:08;11.88;;;4.75;;
48789;SDS011;41718;51.980;5.734;2024-01-25T07:37:14;21.70;;;6.45;;
48789;SDS011;41718;51.980;5.734;2024-01-25T07:42:26;24.80;;;5.03;;
48789;SDS011;41718;51.980;5.734;2024-01-25T07:53:44;18.58;;;6.60;;
48789;SDS011;41718;51.980;5.734;2024-01-25T07:58:50;21.77;;;4.95;;
48789;SDS011;41718;51.980;5.734;2024-01-25T08:03:53;11.20;;;4.72;;
48789;SDS011;41718;51.980;5.734;2024-01-25T08:08:57;13.05;;;4.78;;
48789;SDS011;41718;51.980;5.734;2024-01-25T08:13:59;15.30;;;5.60;;
48789;SDS011;41718;51.980;5.734;2024-01-25T08:19:01;19.83;;;5.00;;
48789;SDS011;41718;51.980;5.734;2024-01-25T08:24:04;16.92;;;6.68;;
48789;SDS011;41718;51.980;5.734;2024-01-25T08:29:06;18.60;;;6.18;;
48789;SDS011;41718;51.980;5.734;2024-01-25T08:34:08;26.88;;;8.88;;
48789;SDS011;41718;51.980;5.734;2024-01-25T08:39:10;34.22;;;8.68;;
48789;SDS011;41718;51.980;5.734;2024-01-25T08:44:13;14.88;;;6.65;;
48789;SDS011;41718;51.980;5.734;2024-01-25T08:49:15;16.65;;;6.18;;
48789;SDS011;41718;51.980;5.734;2024-01-25T08:54:17;19.10;;;6.53;;
48789;SDS011;41718;51.980;5.734;2024-01-25T08:59:19;19.75;;;6.45;;
48789;SDS011;41718;51.980;5.734;2024-01-25T09:04:22;30.05;;;6.65;;
48789;SDS011;41718;51.980;5.734;2024-01-25T09:09:26;30.52;;;7.05;;
48789;SDS011;41718;51.980;5.734;2024-01-25T09:14:28;28.80;;;7.63;;
48789;SDS011;41718;51.980;5.734;2024-01-25T09:19:32;24.52;;;9.35;;
48789;SDS011;41718;51.980;5.734;2024-01-25T09:25:44;20.77;;;7.28;;
48789;SDS011;41718;51.980;5.734;2024-01-25T09:30:47;24.83;;;7.03;;
48789;SDS011;41718;51.980;5.734;2024-01-25T09:35:49;15.90;;;7.13;;
48789;SDS011;41718;51.980;5.734;2024-01-25T09:40:52;28.20;;;9.00;;
48789;SDS011;41718;51.980;5.734;2024-01-25T09:45:54;28.38;;;7.95;;
48789;SDS011;41718;51.980;5.734;2024-01-25T09:50:56;22.00;;;8.35;;
48789;SDS011;41718;51.980;5.734;2024-01-25T09:56:05;29.23;;;8.60;;
48789;SDS011;41718;51.980;5.734;2024-01-25T10:01:13;27.38;;;8.50;;
48789;SDS011;41718;51.980;5.734;2024-01-25T10:06:17;22.20;;;8.80;;
48789;SDS011;41718;51.980;5.734;2024-01-25T10:11:20;25.42;;;7.80;;
48789;SDS011;41718;51.980;5.734;2024-01-25T10:16:22;25.00;;;8.40;;
48789;SDS011;41718;51.980;5.734;2024-01-25T10:21:24;22.92;;;9.70;;
48789;SDS011;41718;51.980;5.734;2024-01-25T10:26:27;28.90;;;8.55;;
48789;SDS011;41718;51.980;5.734;2024-01-25T10:31:33;25.00;;;9.03;;
48789;SDS011;41718;51.980;5.734;2024-01-25T10:36:40;41.60;;;9.75;;
48789;SDS011;41718;51.980;5.734;2024-01-25T10:41:42;32.95;;;9.35;;
48789;SDS011;41718;51.980;5.734;2024-01-25T10:46:47;27.77;;;9.10;;
48789;SDS011;41718;51.980;5.734;2024-01-25T10:51:49;34.92;;;12.07;;
48789;SDS011;41718;51.980;5.734;2024-01-25T10:56:53;37.42;;;11.30;;
48789;SDS011;41718;51.980;5.734;2024-01-25T11:01:55;27.55;;;9.05;;
48789;SDS011;41718;51.980;5.734;2024-01-25T11:07:04;26.98;;;9.95;;
48789;SDS011;41718;51.980;5.734;2024-01-25T11:12:13;22.85;;;7.85;;
48789;SDS011;41718;51.980;5.734;2024-01-25T11:17:19;24.52;;;8.48;;
48789;SDS011;41718;51.980;5.734;2024-01-25T11:22:23;38.85;;;13.73;;
48789;SDS011;41718;51.980;5.734;2024-01-25T11:27:44;47.15;;;12.48;;
48789;SDS011;41718;51.980;5.734;2024-01-25T11:32:47;38.63;;;10.85;;
48789;SDS011;41718;51.980;5.734;2024-01-25T11:37:52;38.20;;;15.30;;
48789;SDS011;41718;51.980;5.734;2024-01-25T11:42:54;34.08;;;11.65;;
48789;SDS011;41718;51.980;5.734;2024-01-25T11:47:56;39.28;;;13.90;;
48789;SDS011;41718;51.980;5.734;2024-01-25T11:52:58;39.00;;;13.88;;
48789;SDS011;41718;51.980;5.734;2024-01-25T11:58:01;37.92;;;14.63;;
48789;SDS011;41718;51.980;5.734;2024-01-25T12:03:03;36.90;;;14.63;;
48789;SDS011;41718;51.980;5.734;2024-01-25T12:08:09;36.83;;;13.50;;
48789;SDS011;41718;51.980;5.734;2024-01-25T12:13:16;37.30;;;12.80;;
48789;SDS011;41718;51.980;5.734;2024-01-25T12:18:18;39.42;;;17.25;;
48789;SDS011;41718;51.980;5.734;2024-01-25T12:23:21;35.28;;;12.93;;
48789;SDS011;41718;51.980;5.734;2024-01-25T12:28:45;31.38;;;12.70;;
48789;SDS011;41718;51.980;5.734;2024-01-25T12:33:51;25.15;;;10.07;;
48789;SDS011;41718;51.980;5.734;2024-01-25T12:38:54;25.52;;;10.27;;
48789;SDS011;41718;51.980;5.734;2024-01-25T12:44:00;34.53;;;12.60;;
48789;SDS011;41718;51.980;5.734;2024-01-25T12:49:07;32.83;;;13.33;;
48789;SDS011;41718;51.980;5.734;2024-01-25T12:54:09;26.95;;;10.40;;
48789;SDS011;41718;51.980;5.734;2024-01-25T12:59:18;30.95;;;10.98;;
48789;SDS011;41718;51.980;5.734;2024-01-25T13:04:21;34.85;;;11.45;;
48789;SDS011;41718;51.980;5.734;2024-01-25T13:09:26;27.95;;;9.88;;
48789;SDS011;41718;51.980;5.734;2024-01-25T13:14:31;30.30;;;10.00;;
48789;SDS011;41718;51.980;5.734;2024-01-25T13:19:40;31.58;;;11.77;;
48789;SDS011;41718;51.980;5.734;2024-01-25T13:24:43;23.05;;;9.55;;
48789;SDS011;41718;51.980;5.734;2024-01-25T13:29:48;33.13;;;10.80;;
48789;SDS011;41718;51.980;5.734;2024-01-25T13:35:06;27.80;;;8.98;;
48789;SDS011;41718;51.980;5.734;2024-01-25T13:40:14;29.42;;;11.00;;
48789;SDS011;41718;51.980;5.734;2024-01-25T13:45:25;23.92;;;10.00;;
48789;SDS011;41718;51.980;5.734;2024-01-25T13:50:33;25.75;;;8.13;;
48789;SDS011;41718;51.980;5.734;2024-01-25T13:55:40;29.95;;;10.75;;
48789;SDS011;41718;51.980;5.734;2024-01-25T14:00:48;27.10;;;9.60;;
48789;SDS011;41718;51.980;5.734;2024-01-25T14:05:51;28.02;;;10.85;;
48789;SDS011;41718;51.980;5.734;2024-01-25T14:10:58;34.65;;;11.23;;
48789;SDS011;41718;51.980;5.734;2024-01-25T14:16:03;42.70;;;12.27;;
48789;SDS011;41718;51.980;5.734;2024-01-25T14:21:24;27.15;;;12.70;;
48789;SDS011;41718;51.980;5.734;2024-01-25T14:26:32;37.83;;;12.02;;
48789;SDS011;41718;51.980;5.734;2024-01-25T14:31:38;36.10;;;12.07;;
48789;SDS011;41718;51.980;5.734;2024-01-25T14:36:41;36.30;;;12.10;;
48789;SDS011;41718;51.980;5.734;2024-01-25T14:41:46;29.77;;;15.48;;
48789;SDS011;41718;51.980;5.734;2024-01-25T14:46:48;39.13;;;13.88;;
48789;SDS011;41718;51.980;5.734;2024-01-25T14:51:54;35.08;;;13.63;;
48789;SDS011;41718;51.980;5.734;2024-01-25T14:57:00;39.53;;;14.52;;
48789;SDS011;41718;51.980;5.734;2024-01-25T15:07:34;30.17;;;14.10;;
48789;SDS011;41718;51.980;5.734;2024-01-25T15:12:38;34.70;;;14.80;;
48789;SDS011;41718;51.980;5.734;2024-01-25T15:17:47;41.17;;;18.13;;
48789;SDS011;41718;51.980;5.734;2024-01-25T15:22:55;33.78;;;13.18;;
48789;SDS011;41718;51.980;5.734;2024-01-25T15:28:02;34.40;;;15.75;;
48789;SDS011;41718;51.980;5.734;2024-01-25T15:33:05;33.78;;;14.77;;
48789;SDS011;41718;51.980;5.734;2024-01-25T15:38:10;33.97;;;14.73;;
48789;SDS011;41718;51.980;5.734;2024-01-25T15:43:20;35.70;;;14.30;;
48789;SDS011;41718;51.980;5.734;2024-01-25T15:48:23;33.22;;;14.13;;
48789;SDS011;41718;51.980;5.734;2024-01-25T15:53:25;34.40;;;12.88;;
48789;SDS011;41718;51.980;5.734;2024-01-25T15:58:28;35.90;;;13.93;;
48789;SDS011;41718;51.980;5.734;2024-01-25T16:03:30;27.52;;;11.88;;
48789;SDS011;41718;51.980;5.734;2024-01-25T16:08:32;28.80;;;13.95;;
48789;SDS011;41718;51.980;5.734;2024-01-25T16:13:38;25.93;;;13.10;;
48789;SDS011;41718;51.980;5.734;2024-01-25T16:18:43;30.65;;;13.73;;
48789;SDS011;41718;51.980;5.734;2024-01-25T16:23:46;31.55;;;12.73;;
48789;SDS011;41718;51.980;5.734;2024-01-25T16:28:48;28.23;;;12.57;;
48789;SDS011;41718;51.980;5.734;2024-01-25T16:33:50;32.70;;;13.02;;
48789;SDS011;41718;51.980;5.734;2024-01-25T16:38:52;33.58;;;12.05;;
48789;SDS011;41718;51.980;5.734;2024-01-25T16:43:54;29.25;;;12.45;;
48789;SDS011;41718;51.980;5.734;2024-01-25T16:48:56;31.55;;;15.98;;
48789;SDS011;41718;51.980;5.734;2024-01-25T16:53:59;40.20;;;12.68;;
48789;SDS011;41718;51.980;5.734;2024-01-25T16:59:01;34.22;;;15.20;;
48789;SDS011;41718;51.980;5.734;2024-01-25T17:04:03;34.28;;;13.70;;
48789;SDS011;41718;51.980;5.734;2024-01-25T17:09:07;28.85;;;13.85;;
48789;SDS011;41718;51.980;5.734;2024-01-25T17:14:11;27.08;;;13.07;;
48789;SDS011;41718;51.980;5.734;2024-01-25T17:19:13;32.40;;;14.18;;
48789;SDS011;41718;51.980;5.734;2024-01-25T17:24:15;25.98;;;12.52;;
48789;SDS011;41718;51.980;5.734;2024-01-25T17:29:17;28.58;;;12.68;;
48789;SDS011;41718;51.980;5.734;2024-01-25T17:34:19;33.13;;;13.52;;
48789;SDS011;41718;51.980;5.734;2024-01-25T17:39:24;24.65;;;12.27;;
48789;SDS011;41718;51.980;5.734;2024-01-25T17:44:26;25.80;;;12.52;;
48789;SDS011;41718;51.980;5.734;2024-01-25T17:49:33;30.08;;;11.38;;
48789;SDS011;41718;51.980;5.734;2024-01-25T17:54:35;27.08;;;13.77;;
48789;SDS011;41718;51.980;5.734;2024-01-25T18:19:38;33.75;;;15.02;;
48789;SDS011;41718;51.980;5.734;2024-01-25T18:24:41;41.60;;;16.95;;
48789;SDS011;41718;51.980;5.734;2024-01-25T18:29:43;42.80;;;18.95;;
48789;SDS011;41718;51.980;5.734;2024-01-25T18:34:45;41.30;;;18.33;;
48789;SDS011;41718;51.980;5.734;2024-01-25T18:39:47;39.22;;;18.13;;
48789;SDS011;41718;51.980;5.734;2024-01-25T18:44:49;38.72;;;16.70;;
48789;SDS011;41718;51.980;5.734;2024-01-25T18:49:51;47.15;;;18.50;;
48789;SDS011;41718;51.980;5.734;2024-01-25T18:54:53;49.75;;;21.08;;
48789;SDS011;41718;51.980;5.734;2024-01-25T18:59:56;49.00;;;21.05;;
48789;SDS011;41718;51.980;5.734;2024-01-25T19:04:58;47.88;;;21.75;;
48789;SDS011;41718;51.980;5.734;2024-01-25T19:10:02;51.30;;;20.40;;
48789;SDS011;41718;51.980;5.734;2024-01-25T19:15:04;48.95;;;19.38;;
48789;SDS011;41718;51.980;5.734;2024-01-25T19:20:10;58.10;;;23.67;;
48789;SDS011;41718;51.980;5.734;2024-01-25T19:25:13;61.42;;;24.70;;
48789;SDS011;41718;51.980;5.734;2024-01-25T19:30:15;59.33;;;24.17;;
48789;SDS011;41718;51.980;5.734;2024-01-25T19:35:17;53.35;;;21.40;;
48789;SDS011;41718;51.980;5.734;2024-01-25T19:40:21;51.15;;;19.02;;
48789;SDS011;41718;51.980;5.734;2024-01-25T19:45:23;49.58;;;21.13;;
48789;SDS011;41718;51.980;5.734;2024-01-25T19:50:25;43.80;;;18.60;;
48789;SDS011;41718;51.980;5.734;2024-01-25T19:55:27;44.42;;;21.05;;
48789;SDS011;41718;51.980;5.734;2024-01-25T20:00:36;41.65;;;18.10;;
48789;SDS011;41718;51.980;5.734;2024-01-25T20:05:39;44.40;;;18.67;;
48789;SDS011;41718;51.980;5.734;2024-01-25T20:10:42;40.15;;;17.88;;
48789;SDS011;41718;51.980;5.734;2024-01-25T20:15:49;37.88;;;17.85;;
48789;SDS011;41718;51.980;5.734;2024-01-25T20:20:56;41.70;;;17.63;;
48789;SDS011;41718;51.980;5.734;2024-01-25T20:26:01;42.97;;;20.20;;
48789;SDS011;41718;51.980;5.734;2024-01-25T20:31:04;40.08;;;18.30;;
48789;SDS011;41718;51.980;5.734;2024-01-25T20:36:11;34.47;;;16.58;;
48789;SDS011;41718;51.980;5.734;2024-01-25T20:41:14;44.15;;;18.75;;
48789;SDS011;41718;51.980;5.734;2024-01-25T20:46:16;37.42;;;17.95;;
48789;SDS011;41718;51.980;5.734;2024-01-25T20:51:19;33.83;;;15.35;;
48789;SDS011;41718;51.980;5.734;2024-01-25T20:56:26;31.45;;;14.70;;
48789;SDS011;41718;51.980;5.734;2024-01-25T21:01:32;33.42;;;17.25;;
48789;SDS011;41718;51.980;5.734;2024-01-25T21:06:35;30.27;;;16.70;;
48789;SDS011;41718;51.980;5.734;2024-01-25T21:11:38;35.38;;;17.25;;
48789;SDS011;41718;51.980;5.734;2024-01-25T21:16:42;34.85;;;17.95;;
48789;SDS011;41718;51.980;5.734;2024-01-25T21:21:46;37.50;;;18.02;;
48789;SDS011;41718;51.980;5.734;2024-01-25T21:26:48;37.00;;;18.45;;
48789;SDS011;41718;51.980;5.734;2024-01-25T21:31:55;39.90;;;18.73;;
48789;SDS011;41718;51.980;5.734;2024-01-25T21:37:02;34.65;;;17.10;;
48789;SDS011;41718;51.980;5.734;2024-01-25T21:42:04;36.05;;;18.35;;
48789;SDS011;41718;51.980;5.734;2024-01-25T21:47:09;38.33;;;18.27;;
48789;SDS011;41718;51.980;5.734;2024-01-25T21:52:17;39.40;;;17.38;;
48789;SDS011;41718;51.980;5.734;2024-01-25T21:57:22;37.67;;;19.47;;
48789;SDS011;41718;51.980;5.734;2024-01-25T22:02:28;36.60;;;18.48;;
48789;SDS011;41718;51.980;5.734;2024-01-25T22:07:31;43.45;;;19.90;;
48789;SDS011;41718;51.980;5.734;2024-01-25T22:12:33;37.72;;;19.65;;
48789;SDS011;41718;51.980;5.734;2024-01-25T22:17:39;52.37;;;23.23;;
48789;SDS011;41718;51.980;5.734;2024-01-25T22:22:44;45.67;;;20.88;;
48789;SDS011;41718;51.980;5.734;2024-01-25T22:27:47;52.65;;;22.92;;
48789;SDS011;41718;51.980;5.734;2024-01-25T22:32:50;44.33;;;21.33;;
48789;SDS011;41718;51.980;5.734;2024-01-25T22:37:52;43.92;;;20.50;;
48789;SDS011;41718;51.980;5.734;2024-01-25T22:42:55;39.67;;;21.13;;
48789;SDS011;41718;51.980;5.734;2024-01-25T22:47:58;43.05;;;19.70;;
48789;SDS011;41718;51.980;5.734;2024-01-25T22:53:03;39.28;;;19.98;;
48789;SDS011;41718;51.980;5.734;2024-01-25T22:58:10;49.53;;;21.70;;
48789;SDS011;41718;51.980;5.734;2024-01-25T23:03:15;46.28;;;21.45;;
48789;SDS011;41718;51.980;5.734;2024-01-25T23:08:18;45.03;;;21.55;;
48789;SDS011;41718;51.980;5.734;2024-01-25T23:13:23;55.90;;;22.50;;
48789;SDS011;41718;51.980;5.734;2024-01-25T23:18:30;46.95;;;23.88;;
48789;SDS011;41718;51.980;5.734;2024-01-25T23:23:36;41.45;;;21.08;;
48789;SDS011;41718;51.980;5.734;2024-01-25T23:28:42;52.00;;;22.95;;
48789;SDS011;41718;51.980;5.734;2024-01-25T23:33:46;44.42;;;20.98;;
48789;SDS011;41718;51.980;5.734;2024-01-25T23:38:51;51.78;;;23.13;;
48789;SDS011;41718;51.980;5.734;2024-01-25T23:43:53;52.33;;;23.70;;
48789;SDS011;41718;51.980;5.734;2024-01-25T23:48:59;51.42;;;24.10;;
48789;SDS011;41718;51.980;5.734;2024-01-25T23:54:02;38.78;;;20.05;;
48789;SDS011;41718;51.980;5.734;2024-01-25T23:59:10;49.25;;;21.02;;
